sensor_id;sensor_type;location;lat;lon;timestamp;P1;durP1;ratioP1;P2;durP2;ratioP2
70683;SDS011;58263;48.146;11.440;2023-04-25T00:00:17;1.88;;;1.60;;
70683;SDS011;58263;48.146;11.440;2023-04-25T00:02:42;2.42;;;1.63;;
70683;SDS011;58263;48.146;11.440;2023-04-25T00:05:07;2.50;;;1.50;;
70683;SDS011;58263;48.146;11.440;2023-04-25T00:07:34;6.55;;;1.73;;
70683;SDS011;58263;48.146;11.440;2023-04-25T00:09:59;1.80;;;1.55;;
70683;SDS011;58263;48.146;11.440;2023-04-25T00:12:25;2.13;;;1.33;;
70683;SDS011;58263;48.146;11.440;2023-04-25T00:14:53;2.63;;;1.60;;
70683;SDS011;58263;48.146;11.440;2023-04-25T00:17:18;4.47;;;1.95;;
70683;SDS011;58263;48.146;11.440;2023-04-25T00:19:44;1.58;;;1.48;;
70683;SDS011;58263;48.146;11.440;2023-04-25T00:22:11;2.25;;;1.63;;
70683;SDS011;58263;48.146;11.440;2023-04-25T00:24:37;2.50;;;1.50;;
70683;SDS011;58263;48.146;11.440;2023-04-25T00:27:02;1.92;;;1.40;;
70683;SDS011;58263;48.146;11.440;2023-04-25T00:29:27;1.75;;;1.60;;
70683;SDS011;58263;48.146;11.440;2023-04-25T00:31:53;1.50;;;1.40;;
70683;SDS011;58263;48.146;11.440;2023-04-25T00:34:18;2.90;;;1.57;;
70683;SDS011;58263;48.146;11.440;2023-04-25T00:36:43;1.53;;;1.30;;
70683;SDS011;58263;48.146;11.440;2023-04-25T00:39:09;2.38;;;1.60;;
70683;SDS011;58263;48.146;11.440;2023-04-25T00:41:35;1.48;;;1.38;;
70683;SDS011;58263;48.146;11.440;2023-04-25T00:44:00;2.47;;;1.90;;
70683;SDS011;58263;48.146;11.440;2023-04-25T00:46:27;3.63;;;1.98;;
70683;SDS011;58263;48.146;11.440;2023-04-25T00:48:52;2.20;;;1.70;;
70683;SDS011;58263;48.146;11.440;2023-04-25T00:51:19;1.60;;;1.50;;
70683;SDS011;58263;48.146;11.440;2023-04-25T00:53:45;3.13;;;1.98;;
70683;SDS011;58263;48.146;11.440;2023-04-25T00:56:12;3.38;;;1.60;;
70683;SDS011;58263;48.146;11.440;2023-04-25T00:58:38;3.65;;;1.75;;
70683;SDS011;58263;48.146;11.440;2023-04-25T01:01:05;1.88;;;1.42;;
70683;SDS011;58263;48.146;11.440;2023-04-25T01:03:32;1.60;;;1.50;;
70683;SDS011;58263;48.146;11.440;2023-04-25T01:06:01;1.33;;;1.23;;
70683;SDS011;58263;48.146;11.440;2023-04-25T01:08:27;5.78;;;3.97;;
70683;SDS011;58263;48.146;11.440;2023-04-25T01:10:53;3.05;;;2.20;;
70683;SDS011;58263;48.146;11.440;2023-04-25T01:13:18;2.87;;;1.70;;
70683;SDS011;58263;48.146;11.440;2023-04-25T01:15:44;2.13;;;1.80;;
70683;SDS011;58263;48.146;11.440;2023-04-25T01:18:09;1.70;;;1.60;;
70683;SDS011;58263;48.146;11.440;2023-04-25T01:20:34;2.67;;;1.70;;
70683;SDS011;58263;48.146;11.440;2023-04-25T01:23:02;1.95;;;1.63;;
70683;SDS011;58263;48.146;11.440;2023-04-25T01:25:27;1.50;;;1.40;;
70683;SDS011;58263;48.146;11.440;2023-04-25T01:27:54;2.17;;;1.73;;
70683;SDS011;58263;48.146;11.440;2023-04-25T01:30:20;6.65;;;2.03;;
70683;SDS011;58263;48.146;11.440;2023-04-25T01:32:45;2.38;;;1.75;;
70683;SDS011;58263;48.146;11.440;2023-04-25T01:35:12;1.75;;;1.55;;
70683;SDS011;58263;48.146;11.440;2023-04-25T01:37:41;1.20;;;1.20;;
70683;SDS011;58263;48.146;11.440;2023-04-25T01:40:08;2.03;;;1.63;;
70683;SDS011;58263;48.146;11.440;2023-04-25T01:42:35;1.60;;;1.50;;
70683;SDS011;58263;48.146;11.440;2023-04-25T01:45:05;4.20;;;2.22;;
70683;SDS011;58263;48.146;11.440;2023-04-25T01:47:31;2.13;;;1.35;;
70683;SDS011;58263;48.146;11.440;2023-04-25T01:49:56;1.88;;;1.45;;
70683;SDS011;58263;48.146;11.440;2023-04-25T01:52:22;1.70;;;1.60;;
70683;SDS011;58263;48.146;11.440;2023-04-25T01:54:47;2.67;;;1.80;;
70683;SDS011;58263;48.146;11.440;2023-04-25T01:57:14;2.53;;;1.52;;
70683;SDS011;58263;48.146;11.440;2023-04-25T01:59:40;1.83;;;1.65;;
70683;SDS011;58263;48.146;11.440;2023-04-25T02:02:05;2.05;;;1.83;;
70683;SDS011;58263;48.146;11.440;2023-04-25T02:04:31;2.08;;;1.92;;
70683;SDS011;58263;48.146;11.440;2023-04-25T02:06:57;2.60;;;1.75;;
70683;SDS011;58263;48.146;11.440;2023-04-25T02:09:22;2.87;;;1.70;;
70683;SDS011;58263;48.146;11.440;2023-04-25T02:11:48;2.00;;;1.58;;
70683;SDS011;58263;48.146;11.440;2023-04-25T02:14:14;3.72;;;1.75;;
70683;SDS011;58263;48.146;11.440;2023-04-25T02:16:39;5.25;;;1.77;;
70683;SDS011;58263;48.146;11.440;2023-04-25T02:19:05;3.05;;;1.60;;
70683;SDS011;58263;48.146;11.440;2023-04-25T02:21:31;2.88;;;1.75;;
70683;SDS011;58263;48.146;11.440;2023-04-25T02:23:56;3.38;;;1.60;;
70683;SDS011;58263;48.146;11.440;2023-04-25T02:26:22;3.72;;;1.80;;
70683;SDS011;58263;48.146;11.440;2023-04-25T02:28:48;2.45;;;1.67;;
70683;SDS011;58263;48.146;11.440;2023-04-25T02:31:14;1.90;;;1.58;;
70683;SDS011;58263;48.146;11.440;2023-04-25T02:33:39;1.90;;;1.67;;
70683;SDS011;58263;48.146;11.440;2023-04-25T02:36:05;2.33;;;1.90;;
70683;SDS011;58263;48.146;11.440;2023-04-25T02:38:31;1.85;;;1.70;;
70683;SDS011;58263;48.146;11.440;2023-04-25T02:40:56;1.70;;;1.60;;
70683;SDS011;58263;48.146;11.440;2023-04-25T02:43:21;10.97;;;6.40;;
70683;SDS011;58263;48.146;11.440;2023-04-25T02:45:47;16.00;;;5.75;;
70683;SDS011;58263;48.146;11.440;2023-04-25T02:48:12;2.90;;;2.40;;
70683;SDS011;58263;48.146;11.440;2023-04-25T02:50:37;2.33;;;2.03;;
70683;SDS011;58263;48.146;11.440;2023-04-25T02:53:03;2.33;;;2.00;;
70683;SDS011;58263;48.146;11.440;2023-04-25T02:55:28;3.43;;;2.20;;
70683;SDS011;58263;48.146;11.440;2023-04-25T02:57:53;2.55;;;1.70;;
70683;SDS011;58263;48.146;11.440;2023-04-25T03:00:20;2.35;;;1.75;;
70683;SDS011;58263;48.146;11.440;2023-04-25T03:02:46;2.80;;;1.80;;
70683;SDS011;58263;48.146;11.440;2023-04-25T03:05:12;7.80;;;1.70;;
70683;SDS011;58263;48.146;11.440;2023-04-25T03:07:37;3.53;;;1.67;;
70683;SDS011;58263;48.146;11.440;2023-04-25T03:10:04;3.20;;;1.98;;
70683;SDS011;58263;48.146;11.440;2023-04-25T03:12:31;2.28;;;1.77;;
70683;SDS011;58263;48.146;11.440;2023-04-25T03:14:56;1.50;;;1.40;;
70683;SDS011;58263;48.146;11.440;2023-04-25T03:17:21;2.93;;;1.80;;
70683;SDS011;58263;48.146;11.440;2023-04-25T03:19:47;3.00;;;1.70;;
70683;SDS011;58263;48.146;11.440;2023-04-25T03:22:12;3.40;;;1.42;;
70683;SDS011;58263;48.146;11.440;2023-04-25T03:24:38;2.10;;;1.70;;
70683;SDS011;58263;48.146;11.440;2023-04-25T03:27:03;2.20;;;1.42;;
70683;SDS011;58263;48.146;11.440;2023-04-25T03:29:28;3.27;;;1.80;;
70683;SDS011;58263;48.146;11.440;2023-04-25T03:31:54;2.60;;;1.73;;
70683;SDS011;58263;48.146;11.440;2023-04-25T03:34:19;2.17;;;1.60;;
70683;SDS011;58263;48.146;11.440;2023-04-25T03:36:46;1.85;;;1.50;;
70683;SDS011;58263;48.146;11.440;2023-04-25T03:39:11;2.85;;;1.40;;
70683;SDS011;58263;48.146;11.440;2023-04-25T03:41:37;1.40;;;1.30;;
70683;SDS011;58263;48.146;11.440;2023-04-25T03:44:02;1.50;;;1.40;;
70683;SDS011;58263;48.146;11.440;2023-04-25T03:46:27;2.45;;;1.40;;
70683;SDS011;58263;48.146;11.440;2023-04-25T03:48:53;1.97;;;1.10;;
70683;SDS011;58263;48.146;11.440;2023-04-25T03:51:18;2.80;;;1.30;;
70683;SDS011;58263;48.146;11.440;2023-04-25T03:53:43;0.93;;;0.93;;
70683;SDS011;58263;48.146;11.440;2023-04-25T03:56:09;1.38;;;1.27;;
70683;SDS011;58263;48.146;11.440;2023-04-25T03:58:34;1.60;;;1.27;;
70683;SDS011;58263;48.146;11.440;2023-04-25T04:00:59;2.47;;;1.40;;
70683;SDS011;58263;48.146;11.440;2023-04-25T04:03:25;1.30;;;1.25;;
70683;SDS011;58263;48.146;11.440;2023-04-25T04:05:51;1.23;;;1.10;;
70683;SDS011;58263;48.146;11.440;2023-04-25T04:08:16;1.67;;;1.55;;
70683;SDS011;58263;48.146;11.440;2023-04-25T04:10:41;1.50;;;1.10;;
70683;SDS011;58263;48.146;11.440;2023-04-25T04:13:07;1.27;;;1.17;;
70683;SDS011;58263;48.146;11.440;2023-04-25T04:15:32;1.53;;;1.30;;
70683;SDS011;58263;48.146;11.440;2023-04-25T04:17:57;1.35;;;1.05;;
70683;SDS011;58263;48.146;11.440;2023-04-25T04:20:27;1.10;;;1.00;;
70683;SDS011;58263;48.146;11.440;2023-04-25T04:22:52;1.38;;;1.27;;
70683;SDS011;58263;48.146;11.440;2023-04-25T04:25:18;4.67;;;1.90;;
70683;SDS011;58263;48.146;11.440;2023-04-25T04:27:43;1.27;;;1.17;;
70683;SDS011;58263;48.146;11.440;2023-04-25T04:30:09;2.15;;;1.65;;
70683;SDS011;58263;48.146;11.440;2023-04-25T04:32:35;1.60;;;1.10;;
70683;SDS011;58263;48.146;11.440;2023-04-25T04:35:02;1.50;;;1.40;;
70683;SDS011;58263;48.146;11.440;2023-04-25T04:37:29;1.67;;;1.30;;
70683;SDS011;58263;48.146;11.440;2023-04-25T04:39:54;4.15;;;1.50;;
70683;SDS011;58263;48.146;11.440;2023-04-25T04:42:20;2.47;;;1.48;;
70683;SDS011;58263;48.146;11.440;2023-04-25T04:44:46;1.52;;;1.42;;
70683;SDS011;58263;48.146;11.440;2023-04-25T04:47:11;5.23;;;1.77;;
70683;SDS011;58263;48.146;11.440;2023-04-25T04:49:38;2.80;;;1.30;;
70683;SDS011;58263;48.146;11.440;2023-04-25T04:52:04;1.63;;;1.52;;
70683;SDS011;58263;48.146;11.440;2023-04-25T04:54:30;2.05;;;1.35;;
70683;SDS011;58263;48.146;11.440;2023-04-25T04:56:55;1.85;;;1.30;;
70683;SDS011;58263;48.146;11.440;2023-04-25T04:59:21;3.92;;;1.80;;
70683;SDS011;58263;48.146;11.440;2023-04-25T05:01:46;2.63;;;1.38;;
70683;SDS011;58263;48.146;11.440;2023-04-25T05:04:12;1.55;;;1.30;;
70683;SDS011;58263;48.146;11.440;2023-04-25T05:06:37;4.95;;;1.75;;
70683;SDS011;58263;48.146;11.440;2023-04-25T05:09:02;1.60;;;1.48;;
70683;SDS011;58263;48.146;11.440;2023-04-25T05:11:28;2.78;;;1.48;;
70683;SDS011;58263;48.146;11.440;2023-04-25T05:13:54;5.53;;;2.65;;
70683;SDS011;58263;48.146;11.440;2023-04-25T05:16:19;35.15;;;15.05;;
70683;SDS011;58263;48.146;11.440;2023-04-25T05:18:45;18.08;;;7.93;;
70683;SDS011;58263;48.146;11.440;2023-04-25T05:21:11;11.75;;;5.03;;
70683;SDS011;58263;48.146;11.440;2023-04-25T05:23:36;7.90;;;3.92;;
70683;SDS011;58263;48.146;11.440;2023-04-25T05:26:02;10.60;;;5.40;;
70683;SDS011;58263;48.146;11.440;2023-04-25T05:28:27;7.18;;;3.15;;
70683;SDS011;58263;48.146;11.440;2023-04-25T05:30:53;3.87;;;2.60;;
70683;SDS011;58263;48.146;11.440;2023-04-25T05:33:18;7.05;;;3.15;;
70683;SDS011;58263;48.146;11.440;2023-04-25T05:35:44;22.27;;;12.02;;
70683;SDS011;58263;48.146;11.440;2023-04-25T05:38:09;9.95;;;6.18;;
70683;SDS011;58263;48.146;11.440;2023-04-25T05:40:35;6.35;;;3.92;;
70683;SDS011;58263;48.146;11.440;2023-04-25T05:43:00;8.40;;;3.55;;
70683;SDS011;58263;48.146;11.440;2023-04-25T05:45:25;8.37;;;4.47;;
70683;SDS011;58263;48.146;11.440;2023-04-25T05:47:51;12.52;;;5.18;;
70683;SDS011;58263;48.146;11.440;2023-04-25T05:50:16;5.70;;;2.77;;
70683;SDS011;58263;48.146;11.440;2023-04-25T05:52:41;3.97;;;2.00;;
70683;SDS011;58263;48.146;11.440;2023-04-25T05:55:07;11.77;;;4.70;;
70683;SDS011;58263;48.146;11.440;2023-04-25T05:57:33;12.57;;;6.15;;
70683;SDS011;58263;48.146;11.440;2023-04-25T05:59:58;16.40;;;6.70;;
70683;SDS011;58263;48.146;11.440;2023-04-25T06:02:23;4.30;;;2.50;;
70683;SDS011;58263;48.146;11.440;2023-04-25T06:04:49;2.70;;;2.10;;
70683;SDS011;58263;48.146;11.440;2023-04-25T06:07:15;5.45;;;1.80;;
70683;SDS011;58263;48.146;11.440;2023-04-25T06:09:40;3.67;;;2.20;;
70683;SDS011;58263;48.146;11.440;2023-04-25T06:12:06;8.17;;;3.90;;
70683;SDS011;58263;48.146;11.440;2023-04-25T06:14:32;6.43;;;2.88;;
70683;SDS011;58263;48.146;11.440;2023-04-25T06:16:58;6.07;;;2.40;;
70683;SDS011;58263;48.146;11.440;2023-04-25T06:19:24;3.70;;;2.58;;
70683;SDS011;58263;48.146;11.440;2023-04-25T06:21:49;14.33;;;5.17;;
70683;SDS011;58263;48.146;11.440;2023-04-25T06:24:15;4.28;;;2.38;;
70683;SDS011;58263;48.146;11.440;2023-04-25T06:26:40;2.67;;;2.00;;
70683;SDS011;58263;48.146;11.440;2023-04-25T06:29:05;3.83;;;2.17;;
70683;SDS011;58263;48.146;11.440;2023-04-25T06:31:31;2.80;;;1.83;;
70683;SDS011;58263;48.146;11.440;2023-04-25T06:33:59;2.95;;;2.08;;
70683;SDS011;58263;48.146;11.440;2023-04-25T06:36:24;8.95;;;2.15;;
70683;SDS011;58263;48.146;11.440;2023-04-25T06:38:51;5.05;;;2.33;;
70683;SDS011;58263;48.146;11.440;2023-04-25T06:41:17;4.97;;;2.72;;
70683;SDS011;58263;48.146;11.440;2023-04-25T06:43:43;3.00;;;1.92;;
70683;SDS011;58263;48.146;11.440;2023-04-25T06:46:09;4.13;;;2.28;;
70683;SDS011;58263;48.146;11.440;2023-04-25T06:48:34;3.20;;;2.13;;
70683;SDS011;58263;48.146;11.440;2023-04-25T06:50:59;5.35;;;2.53;;
70683;SDS011;58263;48.146;11.440;2023-04-25T06:53:25;4.93;;;2.80;;
70683;SDS011;58263;48.146;11.440;2023-04-25T06:55:50;5.97;;;3.83;;
70683;SDS011;58263;48.146;11.440;2023-04-25T06:58:15;3.08;;;2.30;;
70683;SDS011;58263;48.146;11.440;2023-04-25T07:00:41;4.07;;;2.00;;
70683;SDS011;58263;48.146;11.440;2023-04-25T07:03:06;4.22;;;2.40;;
70683;SDS011;58263;48.146;11.440;2023-04-25T07:05:32;2.50;;;1.80;;
70683;SDS011;58263;48.146;11.440;2023-04-25T07:07:57;5.13;;;2.00;;
70683;SDS011;58263;48.146;11.440;2023-04-25T07:10:22;4.37;;;2.47;;
70683;SDS011;58263;48.146;11.440;2023-04-25T07:12:48;3.37;;;1.80;;
70683;SDS011;58263;48.146;11.440;2023-04-25T07:15:13;3.40;;;2.03;;
70683;SDS011;58263;48.146;11.440;2023-04-25T07:17:38;4.88;;;3.20;;
70683;SDS011;58263;48.146;11.440;2023-04-25T07:20:04;8.23;;;2.40;;
70683;SDS011;58263;48.146;11.440;2023-04-25T07:22:31;2.97;;;1.73;;
70683;SDS011;58263;48.146;11.440;2023-04-25T07:24:57;4.05;;;1.73;;
70683;SDS011;58263;48.146;11.440;2023-04-25T07:27:22;4.33;;;1.70;;
70683;SDS011;58263;48.146;11.440;2023-04-25T07:29:47;4.60;;;1.83;;
70683;SDS011;58263;48.146;11.440;2023-04-25T07:32:13;7.40;;;2.80;;
70683;SDS011;58263;48.146;11.440;2023-04-25T07:34:38;6.18;;;2.63;;
70683;SDS011;58263;48.146;11.440;2023-04-25T07:37:04;3.63;;;1.98;;
70683;SDS011;58263;48.146;11.440;2023-04-25T07:39:30;3.35;;;2.08;;
70683;SDS011;58263;48.146;11.440;2023-04-25T07:41:55;3.97;;;2.50;;
70683;SDS011;58263;48.146;11.440;2023-04-25T07:44:23;7.07;;;2.92;;
70683;SDS011;58263;48.146;11.440;2023-04-25T07:46:49;5.97;;;2.45;;
70683;SDS011;58263;48.146;11.440;2023-04-25T07:49:14;8.45;;;2.28;;
70683;SDS011;58263;48.146;11.440;2023-04-25T07:51:40;6.38;;;2.33;;
70683;SDS011;58263;48.146;11.440;2023-04-25T07:54:06;3.72;;;2.10;;
70683;SDS011;58263;48.146;11.440;2023-04-25T07:56:31;3.28;;;2.33;;
70683;SDS011;58263;48.146;11.440;2023-04-25T07:58:57;4.03;;;2.17;;
70683;SDS011;58263;48.146;11.440;2023-04-25T08:01:22;4.00;;;2.13;;
70683;SDS011;58263;48.146;11.440;2023-04-25T08:03:47;3.50;;;2.05;;
70683;SDS011;58263;48.146;11.440;2023-04-25T08:06:13;4.53;;;2.45;;
70683;SDS011;58263;48.146;11.440;2023-04-25T08:08:38;3.30;;;2.07;;
70683;SDS011;58263;48.146;11.440;2023-04-25T08:11:04;3.00;;;1.90;;
70683;SDS011;58263;48.146;11.440;2023-04-25T08:13:29;2.63;;;1.90;;
70683;SDS011;58263;48.146;11.440;2023-04-25T08:15:54;11.05;;;2.33;;
70683;SDS011;58263;48.146;11.440;2023-04-25T08:18:20;4.87;;;1.90;;
70683;SDS011;58263;48.146;11.440;2023-04-25T08:20:45;4.00;;;2.43;;
70683;SDS011;58263;48.146;11.440;2023-04-25T08:23:10;3.70;;;2.33;;
70683;SDS011;58263;48.146;11.440;2023-04-25T08:25:36;3.30;;;1.67;;
70683;SDS011;58263;48.146;11.440;2023-04-25T08:28:01;1.95;;;1.73;;
70683;SDS011;58263;48.146;11.440;2023-04-25T08:30:28;5.78;;;3.17;;
70683;SDS011;58263;48.146;11.440;2023-04-25T08:32:53;3.08;;;1.70;;
70683;SDS011;58263;48.146;11.440;2023-04-25T08:35:19;3.08;;;1.70;;
70683;SDS011;58263;48.146;11.440;2023-04-25T08:37:45;4.20;;;1.98;;
70683;SDS011;58263;48.146;11.440;2023-04-25T08:40:11;2.08;;;1.55;;
70683;SDS011;58263;48.146;11.440;2023-04-25T08:42:39;1.55;;;1.30;;
70683;SDS011;58263;48.146;11.440;2023-04-25T08:45:08;1.88;;;1.73;;
70683;SDS011;58263;48.146;11.440;2023-04-25T08:50:02;2.38;;;2.22;;
70683;SDS011;58263;48.146;11.440;2023-04-25T08:52:30;4.95;;;1.38;;
70683;SDS011;58263;48.146;11.440;2023-04-25T08:55:00;2.75;;;1.38;;
70683;SDS011;58263;48.146;11.440;2023-04-25T08:57:27;2.22;;;1.38;;
70683;SDS011;58263;48.146;11.440;2023-04-25T08:59:55;2.70;;;1.20;;
70683;SDS011;58263;48.146;11.440;2023-04-25T09:02:22;1.48;;;1.35;;
70683;SDS011;58263;48.146;11.440;2023-04-25T09:04:49;1.85;;;1.20;;
70683;SDS011;58263;48.146;11.440;2023-04-25T09:07:15;1.30;;;1.15;;
70683;SDS011;58263;48.146;11.440;2023-04-25T09:09:43;2.65;;;1.45;;
70683;SDS011;58263;48.146;11.440;2023-04-25T09:12:09;2.08;;;1.50;;
70683;SDS011;58263;48.146;11.440;2023-04-25T09:14:35;1.77;;;1.60;;
70683;SDS011;58263;48.146;11.440;2023-04-25T09:17:00;1.73;;;1.27;;
70683;SDS011;58263;48.146;11.440;2023-04-25T09:19:34;1.90;;;1.30;;
70683;SDS011;58263;48.146;11.440;2023-04-25T09:22:01;3.75;;;1.38;;
70683;SDS011;58263;48.146;11.440;2023-04-25T09:27:03;4.22;;;1.67;;
70683;SDS011;58263;48.146;11.440;2023-04-25T09:29:29;2.58;;;1.40;;
70683;SDS011;58263;48.146;11.440;2023-04-25T09:32:29;2.78;;;1.70;;
70683;SDS011;58263;48.146;11.440;2023-04-25T09:34:49;3.47;;;1.70;;
70683;SDS011;58263;48.146;11.440;2023-04-25T09:37:20;1.80;;;1.38;;
70683;SDS011;58263;48.146;11.440;2023-04-25T09:39:48;3.38;;;1.35;;
70683;SDS011;58263;48.146;11.440;2023-04-25T09:42:15;1.67;;;1.15;;
70683;SDS011;58263;48.146;11.440;2023-04-25T09:44:43;2.17;;;1.40;;
70683;SDS011;58263;48.146;11.440;2023-04-25T09:47:10;1.83;;;1.30;;
70683;SDS011;58263;48.146;11.440;2023-04-25T09:49:41;3.72;;;1.38;;
70683;SDS011;58263;48.146;11.440;2023-04-25T09:52:08;3.05;;;1.80;;
70683;SDS011;58263;48.146;11.440;2023-04-25T09:54:34;4.30;;;1.55;;
70683;SDS011;58263;48.146;11.440;2023-04-25T09:57:07;1.58;;;1.40;;
70683;SDS011;58263;48.146;11.440;2023-04-25T09:59:36;1.35;;;1.25;;
70683;SDS011;58263;48.146;11.440;2023-04-25T10:02:04;1.98;;;1.70;;
70683;SDS011;58263;48.146;11.440;2023-04-25T10:04:32;2.15;;;1.80;;
70683;SDS011;58263;48.146;11.440;2023-04-25T10:07:00;3.95;;;1.50;;
70683;SDS011;58263;48.146;11.440;2023-04-25T10:09:27;2.17;;;1.60;;
70683;SDS011;58263;48.146;11.440;2023-04-25T10:11:56;3.95;;;1.90;;
70683;SDS011;58263;48.146;11.440;2023-04-25T10:14:23;1.45;;;1.17;;
70683;SDS011;58263;48.146;11.440;2023-04-25T10:16:50;1.55;;;1.42;;
70683;SDS011;58263;48.146;11.440;2023-04-25T10:19:18;2.72;;;1.48;;
70683;SDS011;58263;48.146;11.440;2023-04-25T10:22:31;1.35;;;1.27;;
70683;SDS011;58263;48.146;11.440;2023-04-25T10:24:42;4.55;;;1.45;;
70683;SDS011;58263;48.146;11.440;2023-04-25T10:27:09;2.28;;;1.90;;
70683;SDS011;58263;48.146;11.440;2023-04-25T10:29:34;2.80;;;1.63;;
70683;SDS011;58263;48.146;11.440;2023-04-25T10:32:00;2.50;;;1.25;;
70683;SDS011;58263;48.146;11.440;2023-04-25T10:34:42;2.92;;;1.40;;
70683;SDS011;58263;48.146;11.440;2023-04-25T10:37:12;1.20;;;1.10;;
70683;SDS011;58263;48.146;11.440;2023-04-25T10:39:39;1.48;;;1.30;;
70683;SDS011;58263;48.146;11.440;2023-04-25T10:42:06;3.55;;;1.90;;
70683;SDS011;58263;48.146;11.440;2023-04-25T10:44:32;1.48;;;1.30;;
70683;SDS011;58263;48.146;11.440;2023-04-25T10:46:59;2.05;;;1.85;;
70683;SDS011;58263;48.146;11.440;2023-04-25T10:49:30;6.07;;;1.85;;
70683;SDS011;58263;48.146;11.440;2023-04-25T10:54:53;2.15;;;1.20;;
70683;SDS011;58263;48.146;11.440;2023-04-25T10:57:30;1.15;;;1.10;;
70683;SDS011;58263;48.146;11.440;2023-04-25T11:00:00;2.17;;;1.50;;
70683;SDS011;58263;48.146;11.440;2023-04-25T11:02:26;3.22;;;1.23;;
70683;SDS011;58263;48.146;11.440;2023-04-25T11:04:53;2.30;;;1.10;;
70683;SDS011;58263;48.146;11.440;2023-04-25T11:10:04;1.33;;;1.20;;
70683;SDS011;58263;48.146;11.440;2023-04-25T11:12:31;0.98;;;0.80;;
70683;SDS011;58263;48.146;11.440;2023-04-25T11:15:06;1.67;;;1.13;;
70683;SDS011;58263;48.146;11.440;2023-04-25T11:17:32;1.63;;;1.20;;
70683;SDS011;58263;48.146;11.440;2023-04-25T11:19:58;1.83;;;1.10;;
70683;SDS011;58263;48.146;11.440;2023-04-25T11:22:24;2.35;;;2.13;;
70683;SDS011;58263;48.146;11.440;2023-04-25T11:24:49;3.00;;;1.40;;
70683;SDS011;58263;48.146;11.440;2023-04-25T11:27:15;2.88;;;2.05;;
70683;SDS011;58263;48.146;11.440;2023-04-25T11:29:41;1.60;;;1.50;;
70683;SDS011;58263;48.146;11.440;2023-04-25T11:32:06;1.60;;;1.50;;
70683;SDS011;58263;48.146;11.440;2023-04-25T11:34:32;1.77;;;1.30;;
70683;SDS011;58263;48.146;11.440;2023-04-25T11:36:59;2.58;;;1.60;;
70683;SDS011;58263;48.146;11.440;2023-04-25T11:39:26;2.60;;;1.52;;
70683;SDS011;58263;48.146;11.440;2023-04-25T11:41:53;1.40;;;1.30;;
70683;SDS011;58263;48.146;11.440;2023-04-25T11:44:19;0.80;;;0.80;;
70683;SDS011;58263;48.146;11.440;2023-04-25T11:46:45;1.00;;;1.00;;
70683;SDS011;58263;48.146;11.440;2023-04-25T11:49:11;1.17;;;0.88;;
70683;SDS011;58263;48.146;11.440;2023-04-25T11:51:44;1.15;;;1.00;;
70683;SDS011;58263;48.146;11.440;2023-04-25T11:54:11;4.10;;;1.48;;
70683;SDS011;58263;48.146;11.440;2023-04-25T11:56:37;2.08;;;1.00;;
70683;SDS011;58263;48.146;11.440;2023-04-25T11:59:06;1.98;;;1.20;;
70683;SDS011;58263;48.146;11.440;2023-04-25T12:01:32;2.50;;;1.60;;
70683;SDS011;58263;48.146;11.440;2023-04-25T12:06:41;1.83;;;1.55;;
70683;SDS011;58263;48.146;11.440;2023-04-25T12:09:08;2.28;;;0.88;;
70683;SDS011;58263;48.146;11.440;2023-04-25T12:14:07;3.00;;;1.20;;
70683;SDS011;58263;48.146;11.440;2023-04-25T12:16:45;1.65;;;1.40;;
70683;SDS011;58263;48.146;11.440;2023-04-25T12:19:18;1.17;;;1.08;;
70683;SDS011;58263;48.146;11.440;2023-04-25T12:21:45;1.00;;;1.00;;
70683;SDS011;58263;48.146;11.440;2023-04-25T12:24:15;1.70;;;1.08;;
70683;SDS011;58263;48.146;11.440;2023-04-25T12:26:49;1.02;;;1.02;;
70683;SDS011;58263;48.146;11.440;2023-04-25T12:29:19;0.60;;;0.60;;
70683;SDS011;58263;48.146;11.440;2023-04-25T12:31:46;1.85;;;0.77;;
70683;SDS011;58263;48.146;11.440;2023-04-25T12:34:12;1.20;;;1.10;;
70683;SDS011;58263;48.146;11.440;2023-04-25T12:36:37;0.90;;;0.90;;
70683;SDS011;58263;48.146;11.440;2023-04-25T12:39:04;1.25;;;1.13;;
70683;SDS011;58263;48.146;11.440;2023-04-25T12:41:30;0.80;;;0.80;;
70683;SDS011;58263;48.146;11.440;2023-04-25T12:43:55;0.70;;;0.70;;
70683;SDS011;58263;48.146;11.440;2023-04-25T12:46:21;1.00;;;0.97;;
70683;SDS011;58263;48.146;11.440;2023-04-25T12:48:47;1.20;;;1.10;;
70683;SDS011;58263;48.146;11.440;2023-04-25T12:51:13;0.80;;;0.80;;
70683;SDS011;58263;48.146;11.440;2023-04-25T12:53:38;0.98;;;0.98;;
70683;SDS011;58263;48.146;11.440;2023-04-25T12:56:05;1.05;;;0.95;;
70683;SDS011;58263;48.146;11.440;2023-04-25T12:58:32;0.70;;;0.70;;
70683;SDS011;58263;48.146;11.440;2023-04-25T13:00:58;1.00;;;0.70;;
70683;SDS011;58263;48.146;11.440;2023-04-25T13:03:23;0.40;;;0.40;;
70683;SDS011;58263;48.146;11.440;2023-04-25T13:05:49;0.57;;;0.55;;
70683;SDS011;58263;48.146;11.440;2023-04-25T13:08:17;2.13;;;0.65;;
70683;SDS011;58263;48.146;11.440;2023-04-25T13:10:42;1.90;;;0.80;;
70683;SDS011;58263;48.146;11.440;2023-04-25T13:13:08;2.40;;;1.07;;
70683;SDS011;58263;48.146;11.440;2023-04-25T13:15:33;0.50;;;0.50;;
70683;SDS011;58263;48.146;11.440;2023-04-25T13:17:59;0.63;;;0.50;;
70683;SDS011;58263;48.146;11.440;2023-04-25T13:20:24;3.93;;;0.60;;
70683;SDS011;58263;48.146;11.440;2023-04-25T13:22:49;2.08;;;0.80;;
70683;SDS011;58263;48.146;11.440;2023-04-25T13:25:15;1.27;;;1.15;;
70683;SDS011;58263;48.146;11.440;2023-04-25T13:27:41;0.82;;;0.82;;
70683;SDS011;58263;48.146;11.440;2023-04-25T13:30:09;1.27;;;1.17;;
70683;SDS011;58263;48.146;11.440;2023-04-25T13:32:35;0.63;;;0.63;;
70683;SDS011;58263;48.146;11.440;2023-04-25T13:35:01;1.17;;;0.60;;
70683;SDS011;58263;48.146;11.440;2023-04-25T13:37:34;0.50;;;0.50;;
70683;SDS011;58263;48.146;11.440;2023-04-25T13:40:00;0.60;;;0.60;;
70683;SDS011;58263;48.146;11.440;2023-04-25T13:42:30;0.82;;;0.70;;
70683;SDS011;58263;48.146;11.440;2023-04-25T13:44:56;1.42;;;0.70;;
70683;SDS011;58263;48.146;11.440;2023-04-25T13:47:21;2.30;;;0.83;;
70683;SDS011;58263;48.146;11.440;2023-04-25T13:49:48;1.48;;;1.38;;
70683;SDS011;58263;48.146;11.440;2023-04-25T13:52:13;1.20;;;1.10;;
70683;SDS011;58263;48.146;11.440;2023-04-25T13:54:38;1.50;;;1.00;;
70683;SDS011;58263;48.146;11.440;2023-04-25T13:57:04;1.43;;;1.30;;
70683;SDS011;58263;48.146;11.440;2023-04-25T13:59:30;1.65;;;1.13;;
70683;SDS011;58263;48.146;11.440;2023-04-25T14:01:55;1.58;;;0.85;;
70683;SDS011;58263;48.146;11.440;2023-04-25T14:04:20;5.93;;;1.10;;
70683;SDS011;58263;48.146;11.440;2023-04-25T14:06:46;1.90;;;0.80;;
70683;SDS011;58263;48.146;11.440;2023-04-25T14:09:11;1.50;;;0.73;;
70683;SDS011;58263;48.146;11.440;2023-04-25T14:11:38;1.50;;;1.05;;
70683;SDS011;58263;48.146;11.440;2023-04-25T14:14:04;2.28;;;1.15;;
70683;SDS011;58263;48.146;11.440;2023-04-25T14:16:30;0.60;;;0.60;;
70683;SDS011;58263;48.146;11.440;2023-04-25T14:18:57;0.50;;;0.50;;
70683;SDS011;58263;48.146;11.440;2023-04-25T14:21:23;0.47;;;0.47;;
70683;SDS011;58263;48.146;11.440;2023-04-25T14:23:48;0.43;;;0.43;;
70683;SDS011;58263;48.146;11.440;2023-04-25T14:26:13;1.07;;;0.87;;
70683;SDS011;58263;48.146;11.440;2023-04-25T14:28:39;0.80;;;0.80;;
70683;SDS011;58263;48.146;11.440;2023-04-25T14:31:04;0.50;;;0.50;;
70683;SDS011;58263;48.146;11.440;2023-04-25T14:33:30;0.68;;;0.60;;
70683;SDS011;58263;48.146;11.440;2023-04-25T14:35:55;1.83;;;0.80;;
70683;SDS011;58263;48.146;11.440;2023-04-25T14:38:21;0.50;;;0.50;;
70683;SDS011;58263;48.146;11.440;2023-04-25T14:40:51;0.20;;;0.20;;
70683;SDS011;58263;48.146;11.440;2023-04-25T14:43:17;0.77;;;0.77;;